Time;durP1;ratioP1;P1;durP2;ratioP2;P2;SDS_P1;SDS_P2;PMS_P1;PMS_P2;Temp;Humidity;BMP_temperature;BMP_pressure;BME280_temperature;BME280_humidity;BME280_pressure;Samples;Min_cycle;Max_cycle;Signal;HPM_P1;HPM_P2
2021/06/09 00:00:58;;;;;;;24.00;21.90;;;;;;;20.22;90.85;96801.72;4993240;28;20540;-71
2021/06/09 00:03:23;;;;;;;21.63;19.90;;;;;;;20.22;90.20;96793.72;4974599;28;20532;-69
2021/06/09 00:05:50;;;;;;;21.43;19.73;;;;;;;20.20;89.85;96801.25;4991194;28;20176;-71
2021/06/09 00:08:17;;;;;;;21.27;19.47;;;;;;;20.11;90.20;96798.28;4981450;28;20597;-64
2021/06/09 00:10:42;;;;;;;21.27;19.57;;;;;;;20.04;90.30;96797.81;4993427;28;20475;-70
2021/06/09 00:13:08;;;;;;;24.73;22.73;;;;;;;20.04;89.97;96803.13;4993278;28;20927;-70
2021/06/09 00:15:34;;;;;;;22.73;20.97;;;;;;;20.06;89.91;96793.00;4993160;28;20200;-71
2021/06/09 00:18:00;;;;;;;23.87;21.90;;;;;;;20.05;89.75;96782.59;4993733;28;20173;-67
2021/06/09 00:20:27;;;;;;;28.57;26.07;;;;;;;20.05;90.11;96785.25;4991906;28;20919;-70
2021/06/09 00:22:53;;;;;;;26.43;24.23;;;;;;;19.96;90.72;96793.06;5007583;28;20207;-70
2021/06/09 00:25:19;;;;;;;29.67;26.90;;;;;;;19.99;90.44;96789.03;5009396;28;20416;-64
2021/06/09 00:27:47;;;;;;;27.77;25.30;;;;;;;20.02;90.46;96783.94;4993642;28;20401;-70
2021/06/09 00:30:16;;;;;;;27.60;25.10;;;;;;;19.90;91.11;96780.81;4992869;28;20189;-69
2021/06/09 00:32:43;;;;;;;25.70;23.50;;;;;;;19.87;90.85;96781.34;4993070;28;20756;-64
2021/06/09 00:35:09;;;;;;;24.63;22.53;;;;;;;19.88;90.76;96782.13;4992122;28;20551;-70
2021/06/09 00:37:35;;;;;;;24.57;22.37;;;;;;;19.88;90.51;96790.13;4981443;28;20512;-64
2021/06/09 00:40:00;;;;;;;22.90;21.00;;;;;;;19.80;90.41;96780.06;4973826;28;20920;-71
2021/06/09 00:42:25;;;;;;;23.63;21.63;;;;;;;19.80;90.39;96774.72;4989996;28;20182;-64
2021/06/09 00:44:51;;;;;;;23.27;21.37;;;;;;;19.81;89.76;96787.78;4993539;28;20720;-70
2021/06/09 00:47:21;;;;;;;23.37;21.40;;;;;;;19.70;89.77;96785.41;4975726;28;20165;-64
2021/06/09 00:49:46;;;;;;;22.27;20.37;;;;;;;19.63;90.10;96785.72;4984793;28;20644;-68
2021/06/09 00:52:12;;;;;;;21.53;19.67;;;;;;;19.67;90.31;96792.09;4988917;28;20455;-70
2021/06/09 00:54:37;;;;;;;22.90;21.00;;;;;;;19.67;90.22;96792.09;4985590;28;20198;-63
2021/06/09 00:57:04;;;;;;;23.90;21.90;;;;;;;19.67;89.61;96791.28;4993404;28;20186;-64
2021/06/09 00:59:32;;;;;;;25.17;23.07;;;;;;;19.61;90.13;96803.03;4993477;28;20172;-64
2021/06/09 01:01:57;;;;;;;21.87;20.10;;;;;;;19.45;90.72;96795.09;4983826;28;20512;-64
2021/06/09 01:04:23;;;;;;;20.10;18.50;;;;;;;19.46;90.55;96795.88;4987134;28;20535;-64
2021/06/09 01:06:48;;;;;;;21.37;19.47;;;;;;;19.37;90.93;96792.16;4994320;28;20555;-70
2021/06/09 01:09:14;;;;;;;20.80;19.00;;;;;;;19.34;90.75;96798.88;4997104;28;20209;-64
2021/06/09 01:11:39;;;;;;;20.33;18.63;;;;;;;19.37;90.52;96795.66;4996433;28;20166;-71
2021/06/09 01:14:04;;;;;;;21.03;19.30;;;;;;;19.38;90.13;96801.78;4996710;28;20602;-64
2021/06/09 01:16:30;;;;;;;20.67;19.00;;;;;;;19.28;90.63;96791.91;4978496;28;20252;-70
2021/06/09 01:18:55;;;;;;;21.27;19.47;;;;;;;19.30;90.46;96791.63;4977311;28;20182;-64
2021/06/09 01:21:32;;;;;;;21.20;19.50;;;;;;;19.28;90.61;96799.91;4977263;28;20181;-70
2021/06/09 01:23:58;;;;;;;21.37;19.40;;;;;;;19.22;90.60;96798.31;4977071;28;20566;-64
2021/06/09 01:26:27;;;;;;;23.03;21.00;;;;;;;19.21;90.88;96801.25;4977116;28;20453;-64
2021/06/09 01:28:54;;;;;;;20.53;18.90;;;;;;;19.15;90.85;96799.66;4976965;28;20908;-65
2021/06/09 01:31:19;;;;;;;21.63;19.80;;;;;;;19.09;91.68;96790.06;4995643;28;20416;-64
2021/06/09 01:33:45;;;;;;;23.40;21.23;;;;;;;19.14;91.51;96790.88;4995975;28;20787;-64
2021/06/09 01:36:11;;;;;;;21.30;19.50;;;;;;;19.10;91.49;96783.66;4996290;28;20197;-71
2021/06/09 01:38:36;;;;;;;23.13;21.13;;;;;;;19.01;92.06;96785.28;4996329;28;20177;-70
2021/06/09 01:41:02;;;;;;;22.77;20.80;;;;;;;19.03;92.33;96783.16;4996386;28;20181;-64
2021/06/09 01:43:28;;;;;;;23.47;21.43;;;;;;;19.11;92.04;96785.28;4995739;28;20197;-70
2021/06/09 01:45:54;;;;;;;23.60;21.50;;;;;;;19.17;91.57;96790.31;4993480;28;20421;-70
2021/06/09 01:48:19;;;;;;;23.13;21.00;;;;;;;19.27;91.50;96786.84;4988595;28;20184;-70
2021/06/09 01:50:45;;;;;;;25.63;23.30;;;;;;;19.27;91.38;96784.19;4976644;28;20518;-70
2021/06/09 01:53:11;;;;;;;23.87;21.67;;;;;;;19.28;91.50;96783.09;4976241;28;20549;-70
2021/06/09 01:55:38;;;;;;;25.97;23.30;;;;;;;19.30;91.45;96786.28;4959107;28;20230;-63
2021/06/09 01:58:04;;;;;;;22.00;20.10;;;;;;;19.32;91.32;96784.19;4976568;28;20166;-64
2021/06/09 02:00:34;;;;;;;22.80;20.90;;;;;;;19.32;91.32;96786.84;4987467;28;20429;-70
2021/06/09 02:03:00;;;;;;;22.37;20.47;;;;;;;19.24;90.83;96784.72;4995543;28;20455;-64
2021/06/09 02:05:32;;;;;;;23.00;21.10;;;;;;;19.16;91.60;96787.94;4996083;28;20421;-70
2021/06/09 02:08:01;;;;;;;24.60;22.37;;;;;;;19.19;91.42;96790.03;4995971;28;20503;-70
2021/06/09 02:10:27;;;;;;;24.60;22.40;;;;;;;19.23;91.22;96789.25;4978286;28;20828;-70
2021/06/09 02:12:56;;;;;;;24.40;22.33;;;;;;;19.18;91.54;96791.94;4995228;28;20459;-70
2021/06/09 02:15:23;;;;;;;25.67;23.57;;;;;;;19.10;91.76;96791.66;4983375;28;20461;-70
2021/06/09 02:18:07;;;;;;;22.33;20.43;;;;;;;19.09;92.33;96788.22;4981968;28;20429;-64
2021/06/09 02:20:33;;;;;;;24.43;22.33;;;;;;;19.13;92.10;96786.59;4995735;28;20451;-64
2021/06/09 02:22:58;;;;;;;24.17;22.07;;;;;;;19.15;92.04;96778.34;4995091;28;20468;-69
2021/06/09 02:25:24;;;;;;;23.93;21.87;;;;;;;19.20;91.75;96775.66;4995476;28;20220;-71
2021/06/09 02:27:49;;;;;;;23.63;21.67;;;;;;;19.17;92.33;96785.00;4995393;28;20252;-70
2021/06/09 02:30:16;;;;;;;22.87;20.87;;;;;;;19.09;92.35;96780.22;4986297;28;20258;-64
2021/06/09 02:32:44;;;;;;;23.27;21.27;;;;;;;19.17;92.52;96781.53;4975465;28;20171;-64
2021/06/09 02:35:20;;;;;;;24.57;22.40;;;;;;;19.14;92.42;96787.41;4975792;28;20476;-70
2021/06/09 02:37:52;;;;;;;25.60;23.40;;;;;;;19.11;92.65;96777.28;4942441;28;20460;-70
2021/06/09 02:40:19;;;;;;;23.60;21.57;;;;;;;19.12;92.61;96770.88;4975983;28;20409;-70
2021/06/09 02:42:44;;;;;;;25.03;22.90;;;;;;;19.08;92.82;96767.94;4961995;28;20460;-63
2021/06/09 02:45:14;;;;;;;23.40;21.40;;;;;;;18.96;92.85;96767.44;4994384;28;20816;-63
2021/06/09 02:47:43;;;;;;;24.00;21.90;;;;;;;19.02;93.02;96771.69;4995026;28;20232;-70
2021/06/09 02:50:09;;;;;;;22.17;20.27;;;;;;;19.02;92.80;96769.03;4995016;28;20416;-65
2021/06/09 02:52:56;;;;;;;24.80;22.70;;;;;;;18.96;93.19;96763.97;4994616;28;20496;-70
2021/06/09 02:55:21;;;;;;;24.73;22.50;;;;;;;19.00;93.64;96765.03;4994895;28;20551;-63
2021/06/09 02:58:01;;;;;;;24.93;22.73;;;;;;;19.00;93.72;96763.19;4994966;28;20495;-70
2021/06/09 03:00:34;;;;;;;24.80;22.70;;;;;;;19.03;93.42;96762.63;4983246;28;20181;-63
2021/06/09 03:03:17;;;;;;;23.70;21.50;;;;;;;19.00;93.73;96762.38;4974698;28;20943;-63
2021/06/09 03:05:54;;;;;;;23.37;21.30;;;;;;;19.10;93.19;96754.34;4991647;28;20435;-63
2021/06/09 03:08:32;;;;;;;22.20;20.30;;;;;;;19.13;92.99;96751.19;4994841;28;20421;-64
2021/06/09 03:11:03;;;;;;;23.40;21.30;;;;;;;19.14;93.06;96758.91;4994504;28;20405;-65
2021/06/09 03:14:01;;;;;;;23.60;21.40;;;;;;;19.18;92.78;96759.97;4994166;28;20440;-64
2021/06/09 03:16:55;;;;;;;24.40;22.30;;;;;;;19.24;92.32;96766.06;4978860;28;20476;-65
2021/06/09 03:19:35;;;;;;;25.87;23.47;;;;;;;19.16;92.96;96767.41;4987074;28;20435;-64
2021/06/09 03:22:22;;;;;;;24.70;22.53;;;;;;;19.17;92.84;96763.69;4992429;28;20400;-64
2021/06/09 03:24:52;;;;;;;25.03;22.80;;;;;;;19.16;92.73;96759.44;4975038;28;20496;-63
2021/06/09 03:27:28;;;;;;;26.03;23.73;;;;;;;19.10;93.27;96770.34;4975201;28;20406;-63
2021/06/09 03:30:02;;;;;;;25.70;23.40;;;;;;;19.11;92.87;96758.63;4974400;28;20452;-63
2021/06/09 03:33:05;;;;;;;25.23;22.93;;;;;;;19.13;93.29;96769.81;4974652;28;20747;-64
2021/06/09 03:35:54;;;;;;;26.50;24.03;;;;;;;19.10;93.40;96762.34;4974722;28;20464;-63
2021/06/09 03:38:38;;;;;;;25.23;23.03;;;;;;;19.19;93.15;96761.53;4988241;28;20429;-70
2021/06/09 03:41:09;;;;;;;26.63;24.33;;;;;;;19.25;92.78;96759.66;4975090;28;20912;-70
2021/06/09 03:43:37;;;;;;;24.70;22.50;;;;;;;19.30;92.68;96764.97;4984981;28;20804;-63
2021/06/09 03:46:06;;;;;;;23.70;21.37;;;;;;;19.25;93.38;96765.81;4994106;28;20888;-70
2021/06/09 03:48:32;;;;;;;25.33;23.10;;;;;;;19.25;93.39;96765.00;4994232;28;20467;-70
2021/06/09 03:51:01;;;;;;;23.63;21.63;;;;;;;19.27;93.16;96761.00;4994083;28;20746;-64
2021/06/09 03:53:27;;;;;;;25.47;23.37;;;;;;;19.34;92.88;96758.06;4993030;28;20445;-70
2021/06/09 03:55:57;;;;;;;24.60;22.40;;;;;;;19.41;92.22;96759.38;4993889;28;20547;-64
2021/06/09 03:58:24;;;;;;;26.07;23.87;;;;;;;19.44;92.18;96768.69;4993933;28;20421;-64
2021/06/09 04:00:52;;;;;;;23.97;21.90;;;;;;;19.47;92.42;96773.50;4994189;28;20447;-70
2021/06/09 04:03:20;;;;;;;23.57;21.47;;;;;;;19.46;92.46;96778.03;4993570;28;20447;-70
2021/06/09 04:05:46;;;;;;;24.40;22.20;;;;;;;19.49;92.57;96771.38;4993897;28;20455;-70
2021/06/09 04:08:16;;;;;;;22.63;20.73;;;;;;;19.52;92.29;96773.47;4981169;28;20437;-64
2021/06/09 04:10:43;;;;;;;21.50;19.70;;;;;;;19.49;91.94;96774.81;4985595;28;20426;-70
2021/06/09 04:13:09;;;;;;;24.13;22.00;;;;;;;19.49;92.14;96774.81;4974003;28;20434;-70
2021/06/09 04:15:37;;;;;;;26.57;24.27;;;;;;;19.52;92.18;96772.69;4974132;28;20457;-65
2021/06/09 04:18:04;;;;;;;25.20;22.90;;;;;;;19.58;91.85;96774.25;4974453;28;20201;-70
2021/06/09 04:20:31;;;;;;;24.77;22.67;;;;;;;19.56;91.95;96768.41;4991778;28;20460;-70
2021/06/09 04:22:57;;;;;;;24.50;22.50;;;;;;;19.46;92.49;96780.69;4993488;28;20436;-69
2021/06/09 04:25:23;;;;;;;25.23;23.13;;;;;;;19.43;93.04;96773.25;4985580;28;20418;-70
2021/06/09 04:27:50;;;;;;;25.27;23.07;;;;;;;19.40;93.25;96775.66;4974535;28;20440;-64
2021/06/09 04:30:18;;;;;;;24.00;21.90;;;;;;;19.37;92.77;96786.84;4974421;28;20421;-70
2021/06/09 04:32:57;;;;;;;22.57;20.60;;;;;;;19.37;93.19;96784.97;4973797;28;20405;-70
2021/06/09 04:35:26;;;;;;;22.90;20.90;;;;;;;19.43;93.23;96783.09;4973925;28;20457;-64
2021/06/09 04:37:52;;;;;;;24.40;22.10;;;;;;;19.39;93.74;96790.03;4973808;28;20409;-70
2021/06/09 04:40:23;;;;;;;25.10;22.90;;;;;;;19.51;93.41;96784.41;4965351;28;20420;-70
2021/06/09 04:42:49;;;;;;;25.10;23.03;;;;;;;19.62;92.79;96792.09;4995735;28;20174;-64
2021/06/09 04:45:16;;;;;;;25.33;23.03;;;;;;;19.66;92.75;96789.72;4997233;28;20470;-70
2021/06/09 04:47:42;;;;;;;24.17;22.17;;;;;;;19.64;92.57;96792.63;4986561;28;20425;-70
2021/06/09 04:50:09;;;;;;;25.40;23.27;;;;;;;19.61;93.01;96789.72;4977696;28;20897;-70
2021/06/09 04:52:35;;;;;;;27.43;25.03;;;;;;;19.67;92.97;96788.63;4977126;28;20413;-64
2021/06/09 04:55:00;;;;;;;26.63;24.20;;;;;;;19.70;93.07;96786.22;4977700;28;20453;-64
2021/06/09 04:57:26;;;;;;;27.30;24.83;;;;;;;19.79;92.64;96781.91;4977591;28;20472;-70
2021/06/09 04:59:51;;;;;;;24.10;21.90;;;;;;;19.84;92.93;96794.44;4977473;28;20178;-64
2021/06/09 05:02:18;;;;;;;25.00;22.90;;;;;;;19.90;92.63;96785.34;4985449;28;20248;-70
2021/06/09 05:04:44;;;;;;;23.60;21.60;;;;;;;19.94;92.93;96789.84;4996931;28;20194;-65
2021/06/09 05:07:09;;;;;;;27.37;24.97;;;;;;;19.94;92.99;96792.53;4995960;28;20433;-65
2021/06/09 05:09:35;;;;;;;22.30;20.40;;;;;;;20.01;92.95;96781.53;4996801;28;20177;-64
2021/06/09 05:12:19;;;;;;;25.27;22.83;;;;;;;20.04;92.41;96787.13;4988963;28;20178;-71
2021/06/09 05:15:04;;;;;;;23.10;21.10;;;;;;;20.03;92.64;96779.41;4977283;28;20205;-65
2021/06/09 05:17:50;;;;;;;21.77;19.87;;;;;;;20.05;92.60;96779.94;4978972;28;20457;-70
2021/06/09 05:20:28;;;;;;;24.97;22.77;;;;;;;20.13;92.39;96787.34;4986159;28;20509;-64
2021/06/09 05:23:26;;;;;;;24.77;22.73;;;;;;;20.20;92.09;96780.66;4976855;28;20471;-70
2021/06/09 05:25:53;;;;;;;23.33;21.40;;;;;;;20.20;91.99;96782.56;4977646;28;20398;-70
2021/06/09 05:28:21;;;;;;;21.50;19.67;;;;;;;20.17;92.18;96785.75;4977192;28;20445;-70
2021/06/09 05:30:48;;;;;;;23.70;21.70;;;;;;;20.18;92.21;96780.13;4977259;28;20410;-65
2021/06/09 05:33:15;;;;;;;25.03;22.87;;;;;;;20.18;92.25;96780.13;4992571;28;20483;-70
2021/06/09 05:35:40;;;;;;;24.00;21.80;;;;;;;20.20;92.18;96785.22;4996308;28;20462;-70
2021/06/09 05:38:07;;;;;;;24.00;21.90;;;;;;;20.23;91.95;96787.34;4996505;28;20420;-63
2021/06/09 05:40:32;;;;;;;22.93;21.03;;;;;;;20.23;91.57;96779.31;4996297;28;20235;-71
2021/06/09 05:42:58;;;;;;;23.47;21.47;;;;;;;20.28;91.35;96776.63;4995904;28;20922;-70
2021/06/09 05:45:32;;;;;;;21.20;19.30;;;;;;;20.21;91.04;96782.28;4996098;28;20741;-63
2021/06/09 05:47:58;;;;;;;22.47;20.27;;;;;;;20.20;91.33;96778.00;4962207;28;20433;-64
2021/06/09 05:50:30;;;;;;;22.70;20.83;;;;;;;20.23;91.20;96779.31;4960227;28;20428;-70
2021/06/09 05:52:58;;;;;;;20.70;18.97;;;;;;;20.24;91.53;96781.72;4975748;28;20433;-63
2021/06/09 05:55:27;;;;;;;19.83;17.93;;;;;;;20.28;91.78;96788.09;4976100;28;20480;-70
2021/06/09 05:57:54;;;;;;;20.73;19.03;;;;;;;20.32;91.83;96786.47;4976542;28;20912;-64
2021/06/09 06:00:24;;;;;;;23.30;21.47;;;;;;;20.41;91.87;96782.16;4980763;28;20422;-64
2021/06/09 06:02:50;;;;;;;20.57;18.97;;;;;;;20.47;91.46;96781.03;4995691;28;20405;-70
2021/06/09 06:05:17;;;;;;;20.60;19.00;;;;;;;20.52;91.58;96782.88;4995092;28;20433;-70
2021/06/09 06:07:44;;;;;;;21.33;19.63;;;;;;;20.51;91.60;96777.81;4978300;28;20842;-70
2021/06/09 06:10:11;;;;;;;20.03;18.33;;;;;;;20.53;91.29;96781.00;4995459;28;20433;-70
2021/06/09 06:12:40;;;;;;;22.50;20.53;;;;;;;20.60;90.91;96786.84;4995339;28;20415;-70
2021/06/09 06:15:09;;;;;;;20.33;18.73;;;;;;;20.63;90.72;96789.75;4995654;28;20452;-69
2021/06/09 06:17:41;;;;;;;20.30;18.60;;;;;;;20.68;90.57;96788.88;4991731;28;20421;-70
2021/06/09 06:20:15;;;;;;;21.43;19.63;;;;;;;20.63;90.50;96786.25;4995464;28;20423;-67
2021/06/09 06:22:41;;;;;;;20.70;19.00;;;;;;;20.65;90.68;96792.13;4995052;28;20409;-69
2021/06/09 06:25:07;;;;;;;20.87;19.30;;;;;;;20.62;90.27;96795.38;4995299;28;20409;-67
2021/06/09 06:27:33;;;;;;;21.73;19.77;;;;;;;20.64;90.45;96788.66;4995406;28;20411;-65
2021/06/09 06:29:59;;;;;;;22.53;20.47;;;;;;;20.67;90.25;96795.31;4995326;28;20174;-66
2021/06/09 06:32:26;;;;;;;22.30;20.40;;;;;;;20.67;90.57;96793.47;4981604;28;20516;-70
2021/06/09 06:34:52;;;;;;;20.77;18.90;;;;;;;20.68;90.59;96794.22;4992375;28;20750;-70
2021/06/09 06:37:21;;;;;;;22.07;20.17;;;;;;;20.67;91.04;96798.00;4995322;28;20415;-70
2021/06/09 06:39:46;;;;;;;22.23;20.40;;;;;;;20.53;91.38;96802.38;4995322;28;20776;-70
2021/06/09 06:42:12;;;;;;;23.73;21.60;;;;;;;20.43;92.41;96801.38;4994792;28;20429;-66
2021/06/09 06:44:40;;;;;;;21.33;19.63;;;;;;;20.58;92.34;96797.00;4995097;28;20189;-66
2021/06/09 06:47:06;;;;;;;21.90;19.90;;;;;;;20.68;92.08;96802.25;4986610;28;20174;-70
2021/06/09 06:49:32;;;;;;;20.07;18.30;;;;;;;20.74;92.02;96801.94;4975704;28;20417;-69
2021/06/09 06:51:58;;;;;;;22.23;20.50;;;;;;;20.85;91.42;96794.66;4975275;28;20463;-70
2021/06/09 06:54:25;;;;;;;24.47;22.10;;;;;;;20.87;91.71;96795.16;4975356;28;20837;-69
2021/06/09 06:56:53;;;;;;;21.73;19.83;;;;;;;20.92;91.65;96803.13;4975696;28;20420;-70
2021/06/09 06:59:21;;;;;;;21.13;19.33;;;;;;;20.99;90.61;96798.25;4975460;28;20410;-69
2021/06/09 07:01:47;;;;;;;19.43;17.93;;;;;;;20.97;90.78;96795.06;4989268;28;20424;-67
2021/06/09 07:04:15;;;;;;;22.97;21.00;;;;;;;21.03;90.94;96794.78;4994284;28;20448;-65
2021/06/09 07:06:43;;;;;;;22.10;19.90;;;;;;;21.05;90.87;96799.84;4994802;28;20640;-65
2021/06/09 07:09:09;;;;;;;20.70;19.00;;;;;;;21.08;90.99;96797.41;4994516;28;20502;-66
2021/06/09 07:11:37;;;;;;;21.50;19.70;;;;;;;21.20;90.98;96799.69;4975632;28;20422;-69
2021/06/09 07:14:05;;;;;;;21.17;19.40;;;;;;;21.29;90.83;96798.81;4990540;28;20444;-67
2021/06/09 07:16:32;;;;;;;17.97;16.40;;;;;;;21.38;90.86;96799.78;4991009;28;20535;-66
2021/06/09 07:18:58;;;;;;;20.50;18.77;;;;;;;21.44;90.76;96792.50;4991082;28;20444;-65
2021/06/09 07:21:24;;;;;;;21.53;19.73;;;;;;;21.47;91.12;96806.13;4991224;28;20428;-68
2021/06/09 07:23:50;;;;;;;23.20;21.10;;;;;;;21.54;90.87;96802.31;4990844;28;20432;-67
2021/06/09 07:26:17;;;;;;;21.27;19.47;;;;;;;21.60;90.30;96807.31;4990191;28;20181;-68
2021/06/09 07:28:49;;;;;;;21.43;19.70;;;;;;;21.67;90.11;96799.75;4972673;28;20442;-70
2021/06/09 07:31:16;;;;;;;21.73;19.93;;;;;;;21.62;89.57;96802.47;4974893;28;20520;-76
2021/06/09 07:33:43;;;;;;;21.70;19.90;;;;;;;21.68;89.63;96801.34;4981491;28;20481;-71
2021/06/09 07:36:10;;;;;;;22.83;20.83;;;;;;;21.73;89.49;96803.16;4975321;28;20471;-76
2021/06/09 07:38:42;;;;;;;19.93;18.40;;;;;;;21.81;88.87;96806.06;4988148;28;20467;-75
2021/06/09 07:41:10;;;;;;;23.07;21.27;;;;;;;21.86;89.24;96805.19;4990886;28;20450;-72
2021/06/09 07:43:39;;;;;;;22.57;20.63;;;;;;;21.92;89.20;96812.84;4984603;28;20449;-73
2021/06/09 07:46:08;;;;;;;22.47;20.57;;;;;;;22.00;88.75;96811.44;4971306;28;20410;-74
2021/06/09 07:48:35;;;;;;;20.10;18.40;;;;;;;22.09;88.46;96810.50;4970574;28;20420;-71
2021/06/09 07:51:06;;;;;;;20.87;19.17;;;;;;;22.24;88.86;96814.88;4974832;28;20414;-75
2021/06/09 07:53:33;;;;;;;22.00;20.23;;;;;;;22.38;88.46;96811.19;4974641;28;20512;-70
2021/06/09 07:55:59;;;;;;;21.90;20.10;;;;;;;22.51;87.39;96809.66;4974535;28;20449;-69
2021/06/09 07:58:28;;;;;;;22.80;20.80;;;;;;;22.70;87.37;96815.06;4974732;28;20412;-70
2021/06/09 08:00:56;;;;;;;20.07;18.30;;;;;;;22.81;86.48;96813.81;4974520;28;20421;-69
2021/06/09 08:03:26;;;;;;;19.63;18.13;;;;;;;22.97;86.90;96824.00;4974146;28;20429;-75
2021/06/09 08:05:53;;;;;;;19.97;18.40;;;;;;;23.17;87.16;96817.50;4974388;28;20426;-70
2021/06/09 08:08:19;;;;;;;18.50;17.00;;;;;;;23.30;85.89;96819.44;4975542;28;20763;-70
2021/06/09 08:10:46;;;;;;;19.03;17.50;;;;;;;23.39;85.57;96820.34;4976560;28;20503;-70
2021/06/09 08:13:11;;;;;;;19.30;17.60;;;;;;;23.45;84.68;96824.56;4993291;28;20284;-70
2021/06/09 08:15:38;;;;;;;19.70;17.90;;;;;;;23.49;84.04;96822.88;4985278;28;20540;-76
2021/06/09 08:18:04;;;;;;;20.00;18.20;;;;;;;23.51;84.06;96825.25;4978403;28;20600;-76
2021/06/09 08:20:31;;;;;;;20.10;18.50;;;;;;;23.53;83.97;96823.88;4978443;28;20500;-70
2021/06/09 08:22:56;;;;;;;20.40;18.80;;;;;;;23.58;83.54;96826.47;4977788;28;20197;-70
2021/06/09 08:25:24;;;;;;;21.40;19.60;;;;;;;23.60;82.97;96826.97;4978532;28;20918;-70
2021/06/09 08:27:51;;;;;;;21.17;19.50;;;;;;;23.61;82.27;96823.19;4978367;28;20217;-70
2021/06/09 08:30:18;;;;;;;21.50;19.60;;;;;;;23.64;82.23;96827.16;4985938;28;20907;-75
2021/06/09 08:32:45;;;;;;;19.63;18.00;;;;;;;23.70;81.86;96820.63;4997335;28;20451;-70
2021/06/09 08:35:11;;;;;;;20.73;18.93;;;;;;;23.69;82.19;96829.75;4997479;28;20451;-75
2021/06/09 08:37:37;;;;;;;17.30;16.00;;;;;;;23.70;81.97;96828.69;4997661;28;20405;-76
2021/06/09 08:40:05;;;;;;;20.20;18.67;;;;;;;23.73;81.63;96830.75;4997531;28;20910;-75
2021/06/09 08:42:35;;;;;;;22.83;20.80;;;;;;;23.72;81.44;96835.31;4997165;28;20188;-70
2021/06/09 08:45:03;;;;;;;19.93;18.33;;;;;;;23.75;81.31;96834.72;4989384;28;20417;-75
2021/06/09 08:47:29;;;;;;;21.57;19.87;;;;;;;23.77;80.95;96835.22;4989381;28;20511;-70
2021/06/09 08:49:55;;;;;;;21.07;19.20;;;;;;;23.76;80.21;96828.28;4997495;28;20432;-70
2021/06/09 08:52:21;;;;;;;21.63;19.77;;;;;;;23.78;80.26;96828.78;4997018;28;20506;-70
2021/06/09 08:54:48;;;;;;;19.93;18.37;;;;;;;23.83;80.96;96831.34;4997182;28;20221;-75
2021/06/09 08:57:14;;;;;;;20.17;18.47;;;;;;;23.91;80.60;96827.97;4997572;28;20427;-70
2021/06/09 08:59:43;;;;;;;19.47;18.03;;;;;;;24.02;80.51;96826.72;4997092;28;20752;-69
2021/06/09 09:02:09;;;;;;;20.10;18.33;;;;;;;24.15;80.39;96831.25;4985652;28;20421;-75
2021/06/09 09:04:37;;;;;;;19.63;17.93;;;;;;;24.25;77.77;96824.88;4983463;28;20523;-70
2021/06/09 09:07:03;;;;;;;20.20;18.60;;;;;;;24.29;77.21;96828.56;4996924;28;20487;-69
2021/06/09 09:09:29;;;;;;;20.03;18.53;;;;;;;24.37;80.30;96836.72;4996989;28;20458;-69
2021/06/09 09:11:54;;;;;;;19.17;17.77;;;;;;;24.57;80.21;96830.09;4996762;28;20420;-69
2021/06/09 09:14:20;;;;;;;18.63;17.17;;;;;;;24.71;79.17;96830.09;4996770;28;20193;-76
2021/06/09 09:17:12;;;;;;;20.97;19.17;;;;;;;24.82;77.82;96831.47;4996779;28;20201;-69
2021/06/09 09:19:41;;;;;;;18.30;16.90;;;;;;;24.94;77.87;96834.38;4983254;28;20190;-69
2021/06/09 09:22:08;;;;;;;17.90;16.50;;;;;;;25.03;76.27;96837.94;4983651;28;20429;-76
2021/06/09 09:24:44;;;;;;;18.90;17.50;;;;;;;25.10;77.12;96830.22;4977218;28;20480;-69
2021/06/09 09:27:13;;;;;;;17.47;16.27;;;;;;;25.16;76.05;96829.00;4976389;28;20413;-69
2021/06/09 09:29:39;;;;;;;18.23;16.83;;;;;;;25.14;77.18;96828.53;4977179;28;20420;-76
2021/06/09 09:32:07;;;;;;;18.20;16.80;;;;;;;25.30;76.39;96827.03;4976840;28;20414;-76
2021/06/09 09:34:43;;;;;;;18.47;17.00;;;;;;;25.38;76.90;96823.66;4979734;28;20980;-76
2021/06/09 09:37:10;;;;;;;19.10;17.60;;;;;;;25.49;74.75;96829.56;4996749;28;20495;-76
2021/06/09 09:39:39;;;;;;;20.07;18.27;;;;;;;25.57;74.82;96826.09;4996532;28;20401;-69
2021/06/09 09:42:21;;;;;;;17.53;16.30;;;;;;;25.75;73.83;96835.84;4996005;28;20424;-70
2021/06/09 09:44:50;;;;;;;17.73;16.30;;;;;;;25.87;72.60;96836.06;4996146;28;20433;-70
2021/06/09 09:47:22;;;;;;;19.83;18.30;;;;;;;25.91;70.24;96837.03;4996305;28;20495;-76
2021/06/09 09:49:49;;;;;;;18.60;17.20;;;;;;;25.77;69.57;96841.72;4988731;28;20434;-70
2021/06/09 09:52:15;;;;;;;18.10;16.70;;;;;;;25.60;71.90;96823.56;4987458;28;20421;-77
2021/06/09 09:54:43;;;;;;;18.60;16.93;;;;;;;25.65;72.95;96826.16;4996004;28;20479;-77
2021/06/09 09:57:11;;;;;;;18.60;17.00;;;;;;;25.76;73.02;96827.47;4995950;28;20778;-70
2021/06/09 09:59:38;;;;;;;16.90;15.50;;;;;;;25.85;72.01;96825.63;4996379;28;20413;-70
2021/06/09 10:02:15;;;;;;;17.67;16.40;;;;;;;25.90;70.37;96817.38;4995603;28;20413;-69
2021/06/09 10:04:41;;;;;;;17.00;15.63;;;;;;;26.02;69.73;96820.25;4991772;28;20452;-70
2021/06/09 10:07:09;;;;;;;16.17;15.07;;;;;;;25.89;68.71;96817.69;4976286;28;20434;-70
2021/06/09 10:09:35;;;;;;;17.37;16.07;;;;;;;26.02;69.10;96814.88;4976535;28;20181;-70
2021/06/09 10:12:07;;;;;;;17.90;16.50;;;;;;;26.03;67.60;96818.38;4976053;28;20418;-71
2021/06/09 10:14:48;;;;;;;16.57;15.37;;;;;;;26.06;68.35;96823.16;4976231;28;20617;-70
2021/06/09 10:17:19;;;;;;;16.30;14.97;;;;;;;26.10;69.54;96824.94;4976398;28;20479;-77
2021/06/09 10:19:58;;;;;;;16.50;15.30;;;;;;;26.12;69.83;96811.94;4982308;28;20421;-76
2021/06/09 10:22:31;;;;;;;16.53;15.30;;;;;;;26.22;70.60;96819.72;4995181;28;20427;-76
2021/06/09 10:24:59;;;;;;;17.03;15.77;;;;;;;26.38;68.54;96812.75;4995275;28;20520;-76
2021/06/09 10:27:48;;;;;;;18.47;16.97;;;;;;;26.32;69.12;96815.94;4995353;28;20408;-70
2021/06/09 10:30:16;;;;;;;16.90;15.60;;;;;;;26.39;68.29;96817.06;4995438;28;20447;-76
2021/06/09 10:32:47;;;;;;;18.53;16.83;;;;;;;26.47;66.42;96817.38;4994696;28;20753;-73
2021/06/09 10:35:12;;;;;;;15.50;14.40;;;;;;;26.49;68.63;96818.63;4991925;28;20452;-67
2021/06/09 10:37:38;;;;;;;18.13;16.83;;;;;;;26.58;69.62;96805.19;4995129;28;20467;-67
2021/06/09 10:40:05;;;;;;;16.83;15.53;;;;;;;26.54;67.53;96810.41;4995140;28;20166;-67
2021/06/09 10:42:32;;;;;;;16.43;15.13;;;;;;;26.54;66.85;96806.91;4994712;28;20180;-74
2021/06/09 10:44:58;;;;;;;17.83;16.40;;;;;;;26.52;67.16;96809.94;4994706;28;20431;-73
2021/06/09 10:47:34;;;;;;;16.40;15.20;;;;;;;26.54;66.51;96804.22;4995063;28;20805;-73
2021/06/09 10:50:01;;;;;;;16.83;15.63;;;;;;;26.53;66.44;96806.13;4982583;28;20417;-73
2021/06/09 10:52:27;;;;;;;16.27;15.10;;;;;;;26.55;65.92;96806.59;4957583;28;20832;-68
2021/06/09 10:54:53;;;;;;;15.27;14.17;;;;;;;26.57;65.91;96800.88;4975493;28;20434;-68
2021/06/09 10:57:19;;;;;;;17.07;15.67;;;;;;;26.55;68.39;96798.50;4958033;28;20441;-73
2021/06/09 10:59:44;;;;;;;16.80;15.60;;;;;;;26.58;68.41;96800.56;4975389;28;20877;-73
2021/06/09 11:02:16;;;;;;;19.37;17.90;;;;;;;26.47;67.79;96796.59;4974874;28;20257;-67
2021/06/09 11:04:46;;;;;;;15.60;14.53;;;;;;;26.53;67.52;96799.94;4986932;28;20190;-67
2021/06/09 11:07:30;;;;;;;17.53;16.23;;;;;;;26.50;67.39;96800.56;4978333;28;20826;-67
2021/06/09 11:09:57;;;;;;;17.80;16.57;;;;;;;26.43;67.05;96796.44;4975279;28;20496;-73
2021/06/09 11:12:30;;;;;;;16.80;15.60;;;;;;;26.39;67.82;96805.47;4974638;28;20441;-67
2021/06/09 11:14:58;;;;;;;18.53;17.13;;;;;;;26.18;66.72;96796.41;4975069;28;20489;-74
2021/06/09 11:17:40;;;;;;;21.10;19.43;;;;;;;26.15;67.83;96802.41;4974977;28;20416;-74
2021/06/09 11:20:34;;;;;;;19.47;17.83;;;;;;;26.13;68.64;96807.31;4975450;28;20406;-73
2021/06/09 11:23:11;;;;;;;20.80;19.07;;;;;;;26.15;69.78;96797.03;4992561;28;20451;-74
2021/06/09 11:25:43;;;;;;;20.57;18.97;;;;;;;26.28;70.02;96790.72;4976154;28;20448;-66